createdAt,value
2019-03-17T00:01:43.031Z,10.15
2019-03-17T00:04:13.068Z,10.16
2019-03-17T00:06:43.134Z,10.14
2019-03-17T00:09:13.237Z,10.11
2019-03-17T00:11:43.267Z,10.20
2019-03-17T00:14:13.394Z,10.22
2019-03-17T00:16:43.421Z,10.27
2019-03-17T00:19:13.575Z,10.26
2019-03-17T00:21:43.652Z,10.25
2019-03-17T00:24:13.696Z,10.23
2019-03-17T00:26:43.699Z,10.24
2019-03-17T00:29:13.816Z,10.25
2019-03-17T00:31:43.860Z,10.18
2019-03-17T00:34:13.936Z,10.27
2019-03-17T00:36:43.979Z,10.22
2019-03-17T00:39:14.083Z,10.23
2019-03-17T00:41:44.109Z,10.27
2019-03-17T00:44:14.174Z,10.33
2019-03-17T00:46:44.212Z,10.32
2019-03-17T00:49:14.314Z,10.45
2019-03-17T00:51:44.359Z,10.41
2019-03-17T00:54:14.398Z,10.35
2019-03-17T00:56:44.451Z,10.38
2019-03-17T00:59:14.602Z,10.44
2019-03-17T01:01:44.635Z,10.45
2019-03-17T01:04:14.788Z,10.46
2019-03-17T01:06:44.888Z,10.39
2019-03-17T01:09:15.013Z,10.37
2019-03-17T01:11:45.306Z,10.41
2019-03-17T01:14:15.448Z,10.48
2019-03-17T01:16:45.568Z,10.45
2019-03-17T01:19:15.714Z,10.44
2019-03-17T01:21:46.008Z,10.42
2019-03-17T01:24:16.078Z,10.49
2019-03-17T01:26:46.171Z,10.47
2019-03-17T01:29:16.314Z,10.48
2019-03-17T01:31:46.460Z,10.49
2019-03-17T01:34:16.579Z,10.50
2019-03-17T01:36:46.696Z,10.44
2019-03-17T01:39:17.528Z,10.43
2019-03-17T01:41:47.650Z,10.44
2019-03-17T01:44:17.782Z,10.49
2019-03-17T01:46:47.807Z,10.43
2019-03-17T01:49:17.957Z,10.47
2019-03-17T01:51:48.032Z,10.51
2019-03-17T01:54:18.156Z,10.46
2019-03-17T01:56:48.243Z,10.45
2019-03-17T01:59:18.399Z,10.51
2019-03-17T02:01:48.578Z,10.52
2019-03-17T02:04:18.778Z,10.47
2019-03-17T02:06:49.050Z,10.54
2019-03-17T02:09:19.162Z,10.50
2019-03-17T02:11:49.296Z,10.49
2019-03-17T02:14:19.652Z,10.47
2019-03-17T02:16:49.725Z,10.48
2019-03-17T02:19:19.850Z,10.56
2019-03-17T02:21:50.003Z,10.52
2019-03-17T02:24:20.027Z,10.46
2019-03-17T02:26:50.157Z,10.50
2019-03-17T02:29:20.169Z,10.52
2019-03-17T02:31:50.253Z,10.41
2019-03-17T02:34:20.306Z,10.44
2019-03-17T02:36:50.342Z,10.49
2019-03-17T02:39:20.382Z,10.40
2019-03-17T02:41:50.460Z,10.31
2019-03-17T02:44:20.489Z,10.29
2019-03-17T02:46:50.530Z,10.30
2019-03-17T02:49:20.566Z,10.35
2019-03-17T02:51:50.639Z,10.36
2019-03-17T02:54:20.662Z,10.46
2019-03-17T02:56:50.723Z,10.51
2019-03-17T02:59:22.449Z,10.42
2019-03-17T03:01:52.492Z,10.47
2019-03-17T03:04:22.705Z,10.43
2019-03-17T03:06:52.747Z,10.44
2019-03-17T03:09:22.771Z,10.40
2019-03-17T03:11:52.824Z,10.51
2019-03-17T03:14:22.903Z,10.55
2019-03-17T03:16:52.943Z,10.55
2019-03-17T03:19:22.987Z,10.56
2019-03-17T03:21:53.026Z,10.56
2019-03-17T03:24:23.034Z,10.56
2019-03-17T03:26:53.073Z,10.55
2019-03-17T03:29:23.108Z,10.41
2019-03-17T03:31:53.236Z,10.45
2019-03-17T03:34:23.254Z,10.45
2019-03-17T03:36:53.314Z,10.49
2019-03-17T03:39:23.365Z,10.45
2019-03-17T03:41:53.438Z,10.44
2019-03-17T03:44:23.486Z,10.42
2019-03-17T03:46:53.515Z,10.43
2019-03-17T03:49:23.553Z,10.49
2019-03-17T03:51:53.653Z,10.52
2019-03-17T03:54:23.825Z,10.53
2019-03-17T03:56:53.810Z,10.55
2019-03-17T03:59:23.826Z,10.56
2019-03-17T04:01:53.882Z,10.57
2019-03-17T04:04:23.964Z,10.58
2019-03-17T04:06:54.098Z,10.54
2019-03-17T04:09:24.141Z,10.59
2019-03-17T04:11:54.250Z,10.53
2019-03-17T04:14:24.359Z,10.58
2019-03-17T04:16:54.434Z,10.54
2019-03-17T04:19:24.439Z,10.58
2019-03-17T04:21:54.486Z,10.61
2019-03-17T04:24:24.534Z,10.63
2019-03-17T04:26:54.548Z,10.57
2019-03-17T04:29:24.573Z,10.58
2019-03-17T04:31:54.621Z,10.62
2019-03-17T04:34:24.745Z,10.64
2019-03-17T04:36:54.896Z,10.56
2019-03-17T04:39:24.881Z,10.52
2019-03-17T04:41:54.914Z,10.55
2019-03-17T04:44:24.942Z,10.56
2019-03-17T04:46:55.050Z,10.58
2019-03-17T04:49:25.045Z,10.64
2019-03-17T04:51:55.060Z,10.60
2019-03-17T04:54:25.069Z,10.57
2019-03-17T04:56:55.129Z,10.58
2019-03-17T04:59:25.168Z,10.56
2019-03-17T05:01:55.187Z,10.57
2019-03-17T05:04:25.235Z,10.55
2019-03-17T05:06:55.287Z,10.57
2019-03-17T05:09:25.277Z,10.63
2019-03-17T05:11:55.317Z,10.68
2019-03-17T05:14:25.420Z,10.70
2019-03-17T05:16:55.465Z,10.58
2019-03-17T05:19:25.516Z,10.72
2019-03-17T05:21:55.617Z,10.61
2019-03-17T05:24:25.703Z,10.61
2019-03-17T05:26:55.764Z,10.55
2019-03-17T05:29:25.830Z,10.70
2019-03-17T05:31:55.929Z,10.61
2019-03-17T05:34:25.938Z,10.55
2019-03-17T05:37:05.336Z,10.60
2019-03-17T05:39:27.778Z,10.63
2019-03-17T05:41:57.777Z,10.74
2019-03-17T05:44:27.823Z,10.65
2019-03-17T05:46:57.838Z,10.54
2019-03-17T05:49:27.913Z,10.59
2019-03-17T05:51:57.943Z,10.46
2019-03-17T05:54:27.994Z,10.55
2019-03-17T05:56:58.082Z,10.45
2019-03-17T05:59:28.156Z,10.52
2019-03-17T06:01:58.198Z,10.59
2019-03-17T06:04:28.344Z,10.53
2019-03-17T06:06:58.353Z,10.60
2019-03-17T06:09:28.456Z,10.47
2019-03-17T06:11:58.562Z,10.59
2019-03-17T06:14:28.712Z,10.40
2019-03-17T06:16:58.748Z,10.41
2019-03-17T06:19:28.844Z,10.28
2019-03-17T06:22:00.542Z,10.39
2019-03-17T06:24:30.878Z,10.34
2019-03-17T06:27:00.911Z,10.19
2019-03-17T06:29:30.984Z,10.22
2019-03-17T06:32:01.049Z,10.25
2019-03-17T06:34:31.094Z,10.33
2019-03-17T06:37:01.180Z,10.28
2019-03-17T06:39:31.348Z,10.38
2019-03-17T06:42:01.364Z,10.44
2019-03-17T06:44:31.508Z,10.40
2019-03-17T06:47:01.621Z,10.28
2019-03-17T06:49:31.748Z,10.36
2019-03-17T06:52:01.804Z,10.40
2019-03-17T06:54:31.878Z,10.55
2019-03-17T06:57:01.921Z,10.47
2019-03-17T06:59:31.971Z,10.54
2019-03-17T07:02:02.041Z,10.40
2019-03-17T07:04:32.101Z,10.38
2019-03-17T07:07:02.148Z,10.36
2019-03-17T07:09:32.222Z,10.40
2019-03-17T07:12:02.430Z,10.22
2019-03-17T07:14:32.947Z,10.38
2019-03-17T07:17:03.002Z,10.22
2019-03-17T07:19:33.090Z,10.20
2019-03-17T07:22:03.228Z,10.25
2019-03-17T07:24:33.326Z,10.27
2019-03-17T07:27:03.357Z,10.32
2019-03-17T07:29:33.550Z,10.46
2019-03-17T07:32:03.654Z,10.56
2019-03-17T07:34:34.852Z,10.49
2019-03-17T07:37:04.882Z,10.52
2019-03-17T07:39:34.975Z,10.49
2019-03-17T07:42:05.026Z,10.51
2019-03-17T07:44:35.120Z,10.48
2019-03-17T07:47:05.166Z,10.52
2019-03-17T07:49:35.212Z,10.57
2019-03-17T07:52:05.375Z,10.66
2019-03-17T07:54:35.455Z,10.56
2019-03-17T07:57:05.473Z,10.51
2019-03-17T07:59:35.507Z,10.66
2019-03-17T08:02:05.640Z,10.55
2019-03-17T08:04:42.301Z,10.48
2019-03-17T08:07:07.544Z,10.51
2019-03-17T08:09:37.793Z,10.54
2019-03-17T08:12:07.759Z,10.45
2019-03-17T08:14:37.807Z,10.13
2019-03-17T08:17:07.841Z,9.65
2019-03-17T08:19:37.906Z,9.64
2019-03-17T08:22:07.981Z,9.93
2019-03-17T08:24:38.001Z,9.56
2019-03-17T08:27:08.038Z,9.52
2019-03-17T08:29:38.138Z,9.34
2019-03-17T08:32:08.185Z,9.33
2019-03-17T08:34:38.276Z,9.26
2019-03-17T08:37:08.274Z,9.23
2019-03-17T08:39:38.339Z,9.35
2019-03-17T08:42:08.354Z,9.22
2019-03-17T08:44:38.467Z,9.30
2019-03-17T08:47:09.771Z,9.24
2019-03-17T08:49:39.797Z,9.51
2019-03-17T08:52:09.879Z,9.50
2019-03-17T08:54:39.920Z,9.49
2019-03-17T08:57:09.943Z,9.66
2019-03-17T08:59:39.971Z,9.52
2019-03-17T09:02:09.981Z,9.32
2019-03-17T09:04:40.097Z,9.51
2019-03-17T09:07:10.131Z,9.38
2019-03-17T09:09:40.288Z,9.36
2019-03-17T09:12:10.344Z,9.44
2019-03-17T09:14:41.305Z,9.51
2019-03-17T09:17:14.711Z,9.47
2019-03-17T09:19:43.105Z,9.44
2019-03-17T09:22:13.184Z,9.30
2019-03-17T09:24:43.295Z,9.38
2019-03-17T09:27:20.829Z,9.24
2019-03-17T09:29:50.965Z,9.34
2019-03-17T09:32:21.029Z,9.19
2019-03-17T09:34:51.075Z,9.16
2019-03-17T09:37:21.153Z,9.33
2019-03-17T09:39:51.233Z,9.29
2019-03-17T09:42:21.286Z,9.30
2019-03-17T09:44:51.341Z,9.42
2019-03-17T09:47:21.402Z,9.41
2019-03-17T09:49:51.415Z,9.30
2019-03-17T09:52:21.554Z,9.24
2019-03-17T09:54:51.646Z,9.20
2019-03-17T09:57:21.765Z,9.08
2019-03-17T09:59:51.856Z,9.16
2019-03-17T10:02:25.719Z,9.31
2019-03-17T10:04:55.740Z,9.25
2019-03-17T10:07:25.874Z,9.21
2019-03-17T10:09:55.979Z,9.53
2019-03-17T10:12:26.087Z,9.55
2019-03-17T10:14:56.168Z,9.78
2019-03-17T10:17:26.306Z,9.67
2019-03-17T10:19:56.375Z,9.67
2019-03-17T10:22:26.441Z,9.65
2019-03-17T10:24:56.493Z,9.43
2019-03-17T10:27:26.758Z,9.53
2019-03-17T10:29:56.769Z,9.35
2019-03-17T10:32:27.004Z,9.41
2019-03-17T10:34:57.002Z,9.34
2019-03-17T10:37:27.136Z,9.51
2019-03-17T10:39:57.172Z,9.55
2019-03-17T10:42:27.265Z,9.65
2019-03-17T10:44:57.298Z,9.62
2019-03-17T10:47:27.790Z,9.51
2019-03-17T10:49:57.869Z,9.61
2019-03-17T10:52:28.008Z,9.75
2019-03-17T10:54:58.047Z,9.57
2019-03-17T10:57:28.116Z,9.63
2019-03-17T10:59:58.219Z,9.71
2019-03-17T11:02:28.409Z,9.61
2019-03-17T11:04:58.511Z,9.69
2019-03-17T11:07:28.588Z,9.75
2019-03-17T11:09:58.671Z,9.82
2019-03-17T11:12:28.761Z,9.73
2019-03-17T11:14:58.959Z,9.70
2019-03-17T11:17:29.090Z,9.94
2019-03-17T11:19:59.168Z,9.74
2019-03-17T11:22:29.205Z,9.71
2019-03-17T11:24:59.374Z,9.75
2019-03-17T11:27:29.493Z,9.75
2019-03-17T11:29:59.494Z,9.74
2019-03-17T11:32:29.558Z,9.63
2019-03-17T11:34:59.704Z,9.64
2019-03-17T11:37:29.854Z,9.74
2019-03-17T11:39:59.898Z,9.94
2019-03-17T11:42:29.958Z,9.89
2019-03-17T11:44:59.964Z,9.77
2019-03-17T11:47:30.078Z,9.71
2019-03-17T11:50:00.390Z,9.95
2019-03-17T11:52:30.478Z,9.86
2019-03-17T11:55:00.470Z,9.87
2019-03-17T11:57:30.534Z,10.00
2019-03-17T12:00:00.558Z,9.91
2019-03-17T12:02:30.626Z,10.13
2019-03-17T12:05:00.683Z,9.90
2019-03-17T12:07:30.741Z,10.10
2019-03-17T12:10:00.825Z,9.83
2019-03-17T12:12:31.201Z,10.12
2019-03-17T12:15:01.245Z,10.07
2019-03-17T12:17:31.714Z,10.20
2019-03-17T12:20:01.835Z,10.25
2019-03-17T12:22:31.892Z,10.42
2019-03-17T12:25:02.007Z,10.38
2019-03-17T12:27:32.110Z,10.23
2019-03-17T12:30:02.234Z,10.27
2019-03-17T12:32:32.348Z,10.00
2019-03-17T12:35:02.473Z,10.34
2019-03-17T12:37:32.598Z,10.30
2019-03-17T12:40:03.433Z,10.28
2019-03-17T12:42:33.690Z,10.38
2019-03-17T12:45:03.776Z,10.45
2019-03-17T12:47:33.866Z,10.52
2019-03-17T12:50:03.928Z,10.43
2019-03-17T12:52:34.023Z,10.53
2019-03-17T12:55:04.154Z,10.56
2019-03-17T12:57:34.239Z,10.48
2019-03-17T13:00:04.562Z,10.45
2019-03-17T13:02:34.816Z,10.45
2019-03-17T13:05:04.904Z,10.18
2019-03-17T13:07:35.004Z,10.14
2019-03-17T13:10:14.887Z,9.97
2019-03-17T13:12:37.627Z,9.93
2019-03-17T13:15:08.590Z,9.85
2019-03-17T13:17:38.715Z,9.19
2019-03-17T13:20:09.856Z,9.11
2019-03-17T13:22:40.002Z,9.12
2019-03-17T13:25:10.156Z,9.36
2019-03-17T13:27:40.215Z,9.46
2019-03-17T13:30:11.564Z,9.55
2019-03-17T13:32:41.708Z,9.57
2019-03-17T13:35:11.875Z,9.54
2019-03-17T13:37:41.891Z,9.59
2019-03-17T13:40:12.588Z,9.67
2019-03-17T13:42:42.642Z,9.51
2019-03-17T13:45:12.859Z,9.70
2019-03-17T13:47:42.954Z,9.70
2019-03-17T13:50:14.198Z,9.68
2019-03-17T13:52:44.316Z,9.71
2019-03-17T13:55:14.525Z,9.41
2019-03-17T13:57:44.803Z,9.31
2019-03-17T14:00:15.493Z,9.21
2019-03-17T14:02:45.637Z,9.29
2019-03-17T14:05:15.739Z,9.14
2019-03-17T14:07:45.769Z,9.10
2019-03-17T14:10:16.396Z,8.97
2019-03-17T14:12:46.497Z,8.98
2019-03-17T14:15:16.771Z,9.08
2019-03-17T14:17:46.796Z,9.13
2019-03-17T14:20:20.308Z,9.19
2019-03-17T14:22:49.749Z,9.01
2019-03-17T14:25:22.751Z,8.96
2019-03-17T14:27:52.840Z,8.95
2019-03-17T14:30:23.094Z,8.99
2019-03-17T14:32:53.178Z,9.05
2019-03-17T14:35:23.245Z,8.95
2019-03-17T14:37:53.300Z,9.03
2019-03-17T14:40:23.510Z,9.41
2019-03-17T14:42:55.436Z,9.10
2019-03-17T14:45:25.393Z,8.92
2019-03-17T14:47:55.451Z,8.84
2019-03-17T14:50:25.611Z,9.19
2019-03-17T14:52:55.707Z,9.12
2019-03-17T14:55:25.763Z,8.89
2019-03-17T14:57:55.831Z,8.98
2019-03-17T15:00:25.893Z,9.02
2019-03-17T15:02:55.963Z,9.16
2019-03-17T15:05:26.110Z,9.19
2019-03-17T15:07:56.161Z,9.06
2019-03-17T15:10:26.284Z,9.17
2019-03-17T15:12:56.903Z,9.11
2019-03-17T15:15:27.028Z,9.20
2019-03-17T15:17:57.088Z,9.32
2019-03-17T15:20:27.184Z,9.25
2019-03-17T15:22:57.214Z,9.11
2019-03-17T15:25:27.287Z,9.14
2019-03-17T15:27:57.434Z,9.15
2019-03-17T15:30:27.513Z,9.33
2019-03-17T15:32:57.583Z,9.37
2019-03-17T15:35:27.664Z,9.35
2019-03-17T15:37:57.724Z,9.38
2019-03-17T15:40:27.792Z,9.17
2019-03-17T15:42:57.840Z,9.23
2019-03-17T15:45:27.938Z,9.18
2019-03-17T15:47:58.022Z,9.43
2019-03-17T15:50:28.190Z,9.49
2019-03-17T15:52:58.253Z,9.47
2019-03-17T15:55:28.321Z,9.43
2019-03-17T15:57:58.499Z,9.23
2019-03-17T16:00:28.684Z,9.24
2019-03-17T16:02:58.688Z,9.44
2019-03-17T16:05:28.894Z,9.27
2019-03-17T16:07:58.918Z,9.11
2019-03-17T16:10:29.192Z,9.16
2019-03-17T16:12:59.295Z,9.10
2019-03-17T16:15:29.395Z,9.06
2019-03-17T16:17:59.426Z,9.09
2019-03-17T16:20:29.587Z,9.29
2019-03-17T16:22:59.627Z,9.11
2019-03-17T16:25:29.771Z,9.16
2019-03-17T16:27:59.854Z,8.98
2019-03-17T16:30:30.086Z,8.95
2019-03-17T16:33:00.148Z,9.00
2019-03-17T16:35:30.221Z,8.95
2019-03-17T16:38:00.345Z,9.09
2019-03-17T16:40:30.530Z,8.92
2019-03-17T16:43:00.586Z,9.14
2019-03-17T16:45:30.665Z,8.92
2019-03-17T16:48:00.799Z,8.90
2019-03-17T16:50:30.890Z,8.89
2019-03-17T16:53:00.952Z,8.82
2019-03-17T16:55:31.053Z,8.91
2019-03-17T16:58:01.122Z,8.80
2019-03-17T17:00:31.252Z,8.79
2019-03-17T17:03:01.339Z,8.68
2019-03-17T17:05:31.427Z,8.70
2019-03-17T17:08:01.558Z,8.62
2019-03-17T17:10:31.732Z,8.51
2019-03-17T17:13:01.805Z,8.65
2019-03-17T17:15:32.126Z,8.76
2019-03-17T17:18:02.267Z,8.61
2019-03-17T17:20:32.413Z,8.63
2019-03-17T17:23:02.606Z,8.60
2019-03-17T17:25:32.632Z,8.44
2019-03-17T17:28:02.716Z,8.42
2019-03-17T17:30:32.761Z,8.43
2019-03-17T17:33:02.851Z,8.44
2019-03-17T17:35:32.914Z,8.54
2019-03-17T17:38:03.011Z,8.57
2019-03-17T17:40:33.090Z,8.51
2019-03-17T17:43:03.193Z,8.68
2019-03-17T17:45:33.221Z,8.63
2019-03-17T17:48:03.349Z,8.37
2019-03-17T17:50:35.098Z,8.45
2019-03-17T17:53:05.151Z,8.51
2019-03-17T17:55:35.208Z,8.46
2019-03-17T17:58:05.391Z,8.56
2019-03-17T18:00:37.645Z,8.43
2019-03-17T18:03:08.969Z,8.52
2019-03-17T18:05:39.006Z,8.37
2019-03-17T18:08:09.076Z,8.42
2019-03-17T18:10:39.229Z,8.37
2019-03-17T18:13:09.315Z,8.12
2019-03-17T18:15:39.347Z,8.33
2019-03-17T18:18:09.514Z,8.35
2019-03-17T18:20:39.559Z,8.14
2019-03-17T18:23:17.756Z,8.08
2019-03-17T18:25:41.416Z,8.22
2019-03-17T18:28:11.490Z,8.13
2019-03-17T18:30:41.720Z,8.06
2019-03-17T18:33:11.903Z,8.09
2019-03-17T18:35:41.995Z,8.04
2019-03-17T18:38:12.155Z,8.08
2019-03-17T18:40:42.573Z,8.09
2019-03-17T18:43:12.744Z,8.15
2019-03-17T18:45:44.359Z,8.14
2019-03-17T18:48:14.469Z,8.03
2019-03-17T18:50:44.528Z,8.09
2019-03-17T18:53:14.689Z,8.09
2019-03-17T18:55:44.754Z,8.10
2019-03-17T18:58:14.805Z,7.86
2019-03-17T19:00:44.830Z,7.98
2019-03-17T19:03:14.925Z,7.80
2019-03-17T19:05:44.997Z,7.68
2019-03-17T19:08:15.249Z,7.75
2019-03-17T19:10:45.314Z,7.70
2019-03-17T19:13:15.457Z,7.68
2019-03-17T19:15:45.610Z,7.72
2019-03-17T19:18:16.073Z,7.63
2019-03-17T19:20:46.274Z,7.79
2019-03-17T19:23:16.421Z,7.70
2019-03-17T19:25:46.470Z,7.76
2019-03-17T19:28:16.603Z,7.48
2019-03-17T19:30:46.719Z,7.61
2019-03-17T19:33:16.777Z,7.89
2019-03-17T19:35:46.823Z,7.88
2019-03-17T19:38:16.874Z,7.72
2019-03-17T19:40:46.913Z,7.93
2019-03-17T19:43:17.012Z,7.91
2019-03-17T19:45:47.095Z,7.96
2019-03-17T19:48:17.179Z,7.92
2019-03-17T19:50:47.259Z,7.78
2019-03-17T19:53:17.377Z,7.59
2019-03-17T19:55:47.420Z,7.55
2019-03-17T19:58:17.593Z,7.56
2019-03-17T20:00:47.677Z,7.53
2019-03-17T20:03:17.766Z,7.43
2019-03-17T20:05:47.879Z,7.52
2019-03-17T20:08:17.956Z,7.33
2019-03-17T20:10:47.986Z,7.24
2019-03-17T20:13:18.030Z,7.19
2019-03-17T20:15:48.056Z,7.10
2019-03-17T20:18:18.150Z,7.29
2019-03-17T20:20:48.307Z,7.22
2019-03-17T20:23:21.319Z,7.25
2019-03-17T20:25:50.156Z,7.12
2019-03-17T20:28:20.218Z,7.18
2019-03-17T20:30:50.291Z,7.16
2019-03-17T20:33:20.334Z,7.26
2019-03-17T20:35:50.490Z,7.11
2019-03-17T20:38:20.510Z,7.18
2019-03-17T20:40:50.577Z,7.16
2019-03-17T20:43:34.121Z,7.21
2019-03-17T20:45:52.519Z,7.08
2019-03-17T20:48:22.739Z,7.19
2019-03-17T20:50:52.897Z,7.07
2019-03-17T20:53:22.947Z,6.90
2019-03-17T20:55:53.042Z,6.96
2019-03-17T20:58:23.181Z,6.97
2019-03-17T21:00:53.266Z,6.88
2019-03-17T21:03:23.384Z,6.87
2019-03-17T21:05:53.501Z,6.82
2019-03-17T21:08:23.692Z,6.84
2019-03-17T21:10:53.715Z,6.96
2019-03-17T21:13:23.799Z,6.77
2019-03-17T21:15:53.842Z,6.85
2019-03-17T21:18:23.853Z,6.86
2019-03-17T21:20:53.904Z,6.87
2019-03-17T21:23:23.938Z,6.89
2019-03-17T21:25:58.945Z,6.93
2019-03-17T21:28:28.964Z,6.72
2019-03-17T21:31:02.394Z,6.57
2019-03-17T21:33:32.422Z,6.57
2019-03-17T21:36:02.556Z,6.57
2019-03-17T21:38:32.669Z,6.68
2019-03-17T21:41:07.232Z,6.49
2019-03-17T21:43:34.449Z,6.60
2019-03-17T21:46:04.550Z,6.59
2019-03-17T21:48:34.607Z,6.51
2019-03-17T21:51:04.662Z,6.64
2019-03-17T21:53:34.690Z,6.57
2019-03-17T21:56:04.721Z,6.53
2019-03-17T21:58:34.744Z,6.54
2019-03-17T22:01:04.831Z,6.61
2019-03-17T22:03:35.075Z,6.52
2019-03-17T22:06:05.127Z,6.46
2019-03-17T22:08:35.159Z,6.54
2019-03-17T22:11:05.216Z,6.46
2019-03-17T22:13:35.263Z,6.52
2019-03-17T22:16:05.305Z,6.44
2019-03-17T22:18:35.317Z,6.49
2019-03-17T22:21:05.365Z,6.52
2019-03-17T22:23:35.362Z,6.35
2019-03-17T22:26:06.270Z,6.38
2019-03-17T22:28:36.284Z,6.39
2019-03-17T22:31:06.737Z,6.41
2019-03-17T22:33:36.745Z,6.43
2019-03-17T22:36:06.824Z,6.39
2019-03-17T22:38:37.281Z,6.39
2019-03-17T22:41:07.593Z,6.43
2019-03-17T22:43:37.750Z,6.36
2019-03-17T22:46:07.941Z,6.34
2019-03-17T22:48:38.021Z,6.44
2019-03-17T22:51:08.060Z,6.22
2019-03-17T22:53:38.183Z,6.37
2019-03-17T22:56:08.282Z,6.26
2019-03-17T22:58:38.375Z,6.11
2019-03-17T23:01:08.532Z,6.33
2019-03-17T23:03:38.655Z,6.20
2019-03-17T23:06:08.710Z,6.23
2019-03-17T23:08:38.904Z,6.23
2019-03-17T23:11:08.963Z,6.30
2019-03-17T23:13:39.062Z,6.34
2019-03-17T23:16:09.107Z,6.26
2019-03-17T23:18:39.173Z,6.43
2019-03-17T23:21:09.408Z,6.17
2019-03-17T23:23:39.710Z,6.20
2019-03-17T23:26:09.817Z,6.23
2019-03-17T23:28:39.787Z,6.35
2019-03-17T23:31:09.941Z,6.26
2019-03-17T23:33:40.048Z,6.22
2019-03-17T23:36:10.340Z,6.30
2019-03-17T23:38:40.595Z,6.15
2019-03-17T23:41:11.179Z,6.42
2019-03-17T23:43:41.205Z,6.17
2019-03-17T23:46:11.245Z,6.25
2019-03-17T23:48:41.266Z,6.18
2019-03-17T23:51:11.351Z,6.15
2019-03-17T23:53:41.405Z,6.15
2019-03-17T23:56:11.470Z,6.16
2019-03-17T23:58:41.489Z,6.10
